Wetterdaten: Woche 06.07.15 - 12.07.15 (KW28)
Datum Zeit Temp. A. Feuchte A. Luftdruck Regen Wind Richtung Sonnenschein ET UV Solar Taupunkt Windchill Windben
06.07.2015 00:00 23,9 C 64 % 1011,3 hPa 0,0 l/m 0,2 km/h (0 Bft) N 0,00 h 0,051 mm 0,0 UV-I 0 W/m 16,5 C 23,9 C 0,4 km/h (0 Bft)
06.07.2015 01:00 23,0 C 71 % 1013,7 hPa 2,2 l/m 12,4 km/h (2 Bft) N-NW 0,00 h 0,025 mm 0,0 UV-I 0 W/m 17,4 C 21,5 C 20,1 km/h (4 Bft)
06.07.2015 02:00 20,3 C 85 % 1013,1 hPa 0,0 l/m 0,9 km/h (0 Bft) N 0,00 h 0,076 mm 0,0 UV-I 0 W/m 17,7 C 20,3 C 2,6 km/h (1 Bft)
06.07.2015 03:00 19,3 C 89 % 1012,9 hPa 0,2 l/m 0,0 km/h (0 Bft) N 0,00 h 0,025 mm 0,0 UV-I 0 W/m 17,4 C 19,3 C 0,0 km/h (0 Bft)
06.07.2015 04:00 18,8 C 92 % 1014,3 hPa 0,0 l/m 1,3 km/h (1 Bft) N 0,00 h 0,000 mm 0,0 UV-I 0 W/m 17,4 C 18,7 C 2,8 km/h (1 Bft)
06.07.2015 05:00 18,3 C 92 % 1014,7 hPa 0,0 l/m 0,0 km/h (0 Bft) N 0,00 h 0,000 mm 0,0 UV-I 10 W/m 17,1 C 18,3 C 0,0 km/h (0 Bft)
06.07.2015 06:00 18,4 C 94 % 1015,6 hPa 0,0 l/m 1,4 km/h (1 Bft) N 0,08 h 0,000 mm 0,0 UV-I 33 W/m 17,4 C 18,4 C 3,4 km/h (1 Bft)
06.07.2015 07:00 19,5 C 93 % 1017,0 hPa 0,0 l/m 2,4 km/h (1 Bft) NW 0,70 h 0,025 mm 0,6 UV-I 68 W/m 18,3 C 19,5 C 5,8 km/h (2 Bft)
06.07.2015 08:00 20,1 C 90 % 1017,6 hPa 0,0 l/m 0,7 km/h (0 Bft) N 0,67 h 0,051 mm 0,6 UV-I 66 W/m 18,4 C 20,1 C 2,2 km/h (1 Bft)
06.07.2015 09:00 20,5 C 90 % 1018,1 hPa 0,0 l/m 1,5 km/h (1 Bft) N 0,87 h 0,051 mm 1,4 UV-I 145 W/m 18,8 C 20,5 C 4,1 km/h (1 Bft)
06.07.2015 10:00 22,7 C 80 % 1018,3 hPa 0,0 l/m 6,9 km/h (2 Bft) W 1,00 h 0,102 mm 3,5 UV-I 590 W/m 19,1 C 22,2 C 13,8 km/h (3 Bft)
06.07.2015 11:00 23,6 C 70 % 1018,6 hPa 0,0 l/m 8,4 km/h (2 Bft) W-SW 1,00 h 0,356 mm 5,7 UV-I 808 W/m 17,8 C 23,0 C 16,6 km/h (3 Bft)
06.07.2015 12:00 24,7 C 58 % 1018,6 hPa 0,0 l/m 8,9 km/h (2 Bft) W-SW 1,00 h 0,508 mm 6,9 UV-I 885 W/m 15,9 C 24,0 C 17,3 km/h (3 Bft)
06.07.2015 13:00 25,8 C 51 % 1018,5 hPa 0,0 l/m 7,8 km/h (2 Bft) W 1,00 h 0,610 mm 7,0 UV-I 894 W/m 14,9 C 25,3 C 14,4 km/h (3 Bft)
06.07.2015 14:00 26,1 C 45 % 1018,4 hPa 0,0 l/m 5,4 km/h (1 Bft) W 1,00 h 0,610 mm 6,4 UV-I 846 W/m 13,2 C 25,9 C 11,5 km/h (2 Bft)
06.07.2015 15:00 26,6 C 42 % 1018,4 hPa 0,0 l/m 4,6 km/h (1 Bft) W-SW 1,00 h 0,584 mm 5,1 UV-I 761 W/m 12,6 C 26,5 C 10,2 km/h (2 Bft)
06.07.2015 16:00 26,6 C 40 % 1018,1 hPa 0,0 l/m 4,6 km/h (1 Bft) W-SW 1,00 h 0,533 mm 3,7 UV-I 648 W/m 11,9 C 26,5 C 10,3 km/h (2 Bft)
06.07.2015 17:00 26,5 C 38 % 1017,7 hPa 0,0 l/m 4,8 km/h (1 Bft) W-SW 1,00 h 0,457 mm 2,1 UV-I 409 W/m 10,8 C 26,4 C 9,6 km/h (2 Bft)
06.07.2015 18:00 25,5 C 39 % 1017,3 hPa 0,0 l/m 3,8 km/h (1 Bft) W 0,88 h 0,305 mm 1,1 UV-I 57 W/m 10,4 C 25,5 C 8,3 km/h (2 Bft)
06.07.2015 19:00 24,9 C 39 % 1017,3 hPa 0,0 l/m 3,0 km/h (1 Bft) W-SW 0,00 h 0,076 mm 0,0 UV-I 35 W/m 10,0 C 24,9 C 6,7 km/h (2 Bft)
06.07.2015 20:00 23,9 C 42 % 1017,3 hPa 0,0 l/m 1,5 km/h (1 Bft) N 0,00 h 0,076 mm 0,0 UV-I 18 W/m 10,2 C 23,9 C 3,4 km/h (1 Bft)
06.07.2015 21:00 21,3 C 56 % 1017,4 hPa 0,0 l/m 0,0 km/h (0 Bft) N 0,00 h 0,025 mm 0,0 UV-I 7 W/m 12,2 C 21,3 C 0,0 km/h (0 Bft)
06.07.2015 22:00 18,4 C 71 % 1017,7 hPa 0,0 l/m 0,0 km/h (0 Bft) N 0,00 h 0,000 mm 0,0 UV-I 0 W/m 12,9 C 18,4 C 0,0 km/h (0 Bft)
06.07.2015 23:00 16,7 C 79 % 1017,6 hPa 0,0 l/m 0,0 km/h (0 Bft) N 0,00 h 0,025 mm 0,0 UV-I 0 W/m 12,9 C 16,7 C 0,0 km/h (0 Bft)
07.07.2015 00:00 15,3 C 83 % 1017,5 hPa 0,0 l/m 0,0 km/h (0 Bft) N 0,00 h 0,025 mm 0,0 UV-I 0 W/m 12,4 C 15,3 C 0,0 km/h (0 Bft)
07.07.2015 01:00 14,4 C 86 % 1017,4 hPa 0,0 l/m 0,0 km/h (0 Bft) N 0,00 h 0,025 mm 0,0 UV-I 0 W/m 12,1 C 14,4 C 0,0 km/h (0 Bft)
07.07.2015 02:00 13,7 C 89 % 1017,0 hPa 0,0 l/m 0,0 km/h (0 Bft) N 0,00 h 0,000 mm 0,0 UV-I 0 W/m 11,8 C 13,7 C 0,0 km/h (0 Bft)
07.07.2015 03:00 13,4 C 89 % 1016,6 hPa 0,0 l/m 0,0 km/h (0 Bft) N 0,00 h 0,000 mm 0,0 UV-I 0 W/m 11,5 C 13,4 C 0,0 km/h (0 Bft)
07.07.2015 04:00 13,0 C 89 % 1016,2 hPa 0,0 l/m 0,0 km/h (0 Bft) N 0,00 h 0,000 mm 0,0 UV-I 0 W/m 11,3 C 13,0 C 0,0 km/h (0 Bft)
07.07.2015 05:00 12,8 C 92 % 1016,0 hPa 0,0 l/m 0,0 km/h (0 Bft) N 0,00 h 0,000 mm 0,0 UV-I 13 W/m 11,5 C 12,8 C 0,0 km/h (0 Bft)
07.07.2015 06:00 13,3 C 92 % 1015,9 hPa 0,0 l/m 0,0 km/h (0 Bft) N 0,17 h 0,000 mm 0,0 UV-I 40 W/m 12,1 C 13,3 C 0,0 km/h (0 Bft)
07.07.2015 07:00 15,7 C 87 % 1015,7 hPa 0,0 l/m 0,0 km/h (0 Bft) N 0,92 h 0,025 mm 0,8 UV-I 174 W/m 13,6 C 15,7 C 0,0 km/h (0 Bft)
07.07.2015 08:00 20,0 C 75 % 1015,3 hPa 0,0 l/m 0,0 km/h (0 Bft) N 1,00 h 0,076 mm 1,7 UV-I 409 W/m 15,3 C 20,0 C 0,1 km/h (0 Bft)
07.07.2015 09:00 24,2 C 63 % 1014,5 hPa 0,0 l/m 0,2 km/h (0 Bft) N 1,00 h 0,254 mm 2,9 UV-I 562 W/m 16,8 C 24,2 C 0,9 km/h (0 Bft)
07.07.2015 10:00 26,5 C 56 % 1013,8 hPa 0,0 l/m 0,7 km/h (0 Bft) N 1,00 h 0,356 mm 3,8 UV-I 619 W/m 17,1 C 26,5 C 2,6 km/h (1 Bft)
07.07.2015 11:00 27,8 C 58 % 1013,1 hPa 0,0 l/m 4,7 km/h (1 Bft) S-SO 1,00 h 0,406 mm 5,1 UV-I 695 W/m 18,8 C 27,6 C 9,3 km/h (2 Bft)
07.07.2015 12:00 29,5 C 53 % 1012,4 hPa 0,0 l/m 7,9 km/h (2 Bft) S 1,00 h 0,483 mm 6,5 UV-I 857 W/m 19,0 C 29,3 C 13,4 km/h (3 Bft)
07.07.2015 13:00 30,9 C 46 % 1011,4 hPa 0,0 l/m 6,8 km/h (2 Bft) S-SO 1,00 h 0,610 mm 6,6 UV-I 839 W/m 17,8 C 30,9 C 12,7 km/h (3 Bft)
07.07.2015 14:00 31,9 C 41 % 1010,5 hPa 0,0 l/m 6,7 km/h (2 Bft) S 1,00 h 0,635 mm 5,9 UV-I 793 W/m 17,1 C 31,8 C 12,3 km/h (2 Bft)
07.07.2015 15:00 31,7 C 42 % 1009,6 hPa 0,0 l/m 6,8 km/h (2 Bft) S-SO 1,00 h 0,610 mm 3,6 UV-I 495 W/m 17,2 C 31,7 C 12,1 km/h (2 Bft)
07.07.2015 16:00 31,4 C 44 % 1008,7 hPa 0,0 l/m 6,6 km/h (2 Bft) S-SO 1,00 h 0,406 mm 2,4 UV-I 417 W/m 17,6 C 31,4 C 11,9 km/h (2 Bft)
07.07.2015 17:00 31,6 C 45 % 1007,9 hPa 0,0 l/m 6,0 km/h (2 Bft) S-SO 1,00 h 0,356 mm 1,8 UV-I 336 W/m 18,3 C 31,6 C 10,9 km/h (2 Bft)
07.07.2015 18:00 31,4 C 45 % 1006,6 hPa 0,0 l/m 4,6 km/h (1 Bft) S-SO 1,00 h 0,279 mm 0,9 UV-I 116 W/m 17,8 C 31,3 C 9,2 km/h (2 Bft)
07.07.2015 19:00 30,9 C 45 % 1005,9 hPa 0,0 l/m 2,6 km/h (1 Bft) S 0,80 h 0,127 mm 0,5 UV-I 63 W/m 17,7 C 30,9 C 6,0 km/h (2 Bft)
07.07.2015 20:00 29,7 C 48 % 1005,0 hPa 0,0 l/m 0,6 km/h (0 Bft) N 0,00 h 0,076 mm 0,0 UV-I 19 W/m 17,6 C 29,7 C 1,9 km/h (1 Bft)
07.07.2015 21:00 27,5 C 57 % 1004,2 hPa 0,0 l/m 0,1 km/h (0 Bft) N 0,00 h 0,025 mm 0,0 UV-I 6 W/m 18,1 C 27,5 C 1,1 km/h (1 Bft)
07.07.2015 22:00 26,0 C 60 % 1003,2 hPa 0,0 l/m 3,5 km/h (1 Bft) S-SO 0,00 h 0,001 mm 0,0 UV-I 0 W/m 17,7 C 25,9 C 6,5 km/h (2 Bft)
07.07.2015 23:00 23,9 C 67 % 1004,6 hPa 0,0 l/m 6,8 km/h (2 Bft) N 0,00 h 0,051 mm 0,0 UV-I 0 W/m 17,2 C 23,4 C 13,2 km/h (3 Bft)
08.07.2015 00:00 20,0 C 86 % 1006,6 hPa 1,8 l/m 6,0 km/h (2 Bft) N 0,00 h 0,051 mm 0,0 UV-I 0 W/m 17,5 C 19,3 C 10,0 km/h (2 Bft)
08.07.2015 01:00 18,9 C 92 % 1006,0 hPa 0,2 l/m 0,1 km/h (0 Bft) N 0,00 h 0,025 mm 0,0 UV-I 0 W/m 17,5 C 18,9 C 0,2 km/h (0 Bft)
08.07.2015 02:00 18,5 C 93 % 1006,1 hPa 0,0 l/m 0,0 km/h (0 Bft) N 0,00 h 0,000 mm 0,0 UV-I 0 W/m 17,4 C 18,5 C 0,0 km/h (0 Bft)
08.07.2015 03:00 18,4 C 94 % 1006,7 hPa 0,0 l/m 1,4 km/h (1 Bft) SW 0,00 h 0,000 mm 0,0 UV-I 0 W/m 17,5 C 18,4 C 4,7 km/h (1 Bft)
08.07.2015 04:00 18,4 C 95 % 1007,2 hPa 0,0 l/m 2,7 km/h (1 Bft) SW 0,00 h 0,000 mm 0,0 UV-I 0 W/m 17,6 C 18,4 C 7,9 km/h (2 Bft)
08.07.2015 05:00 18,4 C 93 % 1007,6 hPa 0,0 l/m 3,7 km/h (1 Bft) W-SW 0,00 h 0,000 mm 0,0 UV-I 9 W/m 17,3 C 18,3 C 8,8 km/h (2 Bft)
08.07.2015 06:00 18,1 C 92 % 1007,7 hPa 0,0 l/m 2,1 km/h (1 Bft) SW 0,48 h 0,000 mm 0,0 UV-I 51 W/m 16,7 C 18,1 C 5,8 km/h (2 Bft)
08.07.2015 07:00 18,6 C 91 % 1007,2 hPa 0,0 l/m 5,1 km/h (1 Bft) SW 1,00 h 0,025 mm 0,6 UV-I 113 W/m 17,1 C 18,1 C 10,6 km/h (2 Bft)
08.07.2015 08:00 18,5 C 85 % 1007,7 hPa 0,0 l/m 8,6 km/h (2 Bft) W 0,80 h 0,051 mm 1,3 UV-I 161 W/m 16,0 C 17,4 C 17,7 km/h (3 Bft)
08.07.2015 09:00 18,4 C 70 % 1008,2 hPa 0,2 l/m 10,4 km/h (2 Bft) W 0,90 h 0,102 mm 1,8 UV-I 241 W/m 12,9 C 16,7 C 18,6 km/h (3 Bft)
08.07.2015 10:00 15,5 C 81 % 1009,4 hPa 0,4 l/m 7,2 km/h (2 Bft) W 1,00 h 0,178 mm 0,9 UV-I 107 W/m 12,2 C 14,4 C 13,4 km/h (3 Bft)
08.07.2015 11:00 16,4 C 82 % 1009,3 hPa 0,0 l/m 3,0 km/h (1 Bft) W-SW 1,00 h 0,076 mm 3,5 UV-I 446 W/m 13,2 C 16,2 C 8,4 km/h (2 Bft)
08.07.2015 12:00 19,7 C 58 % 1009,0 hPa 0,0 l/m 15,0 km/h (3 Bft) W 1,00 h 0,254 mm 6,1 UV-I 842 W/m 11,2 C 17,0 C 25,2 km/h (4 Bft)
08.07.2015 13:00 20,9 C 50 % 1008,9 hPa 0,0 l/m 17,9 km/h (3 Bft) W-SW 1,00 h 0,533 mm 6,4 UV-I 902 W/m 10,1 C 17,8 C 29,5 km/h (5 Bft)
08.07.2015 14:00 21,3 C 47 % 1008,8 hPa 0,0 l/m 16,7 km/h (3 Bft) W 1,00 h 0,635 mm 4,9 UV-I 698 W/m 9,6 C 18,6 C 28,0 km/h (5 Bft)
08.07.2015 15:00 20,8 C 45 % 1009,1 hPa 0,0 l/m 18,5 km/h (3 Bft) W 1,00 h 0,533 mm 3,4 UV-I 495 W/m 8,4 C 17,6 C 28,9 km/h (5 Bft)
08.07.2015 16:00 21,1 C 42 % 1009,6 hPa 0,0 l/m 16,2 km/h (3 Bft) W 1,00 h 0,406 mm 3,0 UV-I 575 W/m 7,6 C 18,4 C 27,6 km/h (5 Bft)
08.07.2015 17:00 20,5 C 41 % 1010,0 hPa 0,0 l/m 15,8 km/h (3 Bft) W-NW 1,00 h 0,457 mm 1,7 UV-I 324 W/m 6,9 C 17,8 C 25,5 km/h (4 Bft)
08.07.2015 18:00 19,3 C 45 % 1010,4 hPa 0,0 l/m 11,5 km/h (2 Bft) W 1,00 h 0,305 mm 0,8 UV-I 133 W/m 7,0 C 17,5 C 19,9 km/h (4 Bft)
08.07.2015 19:00 18,9 C 47 % 1010,8 hPa 0,0 l/m 7,9 km/h (2 Bft) W 1,00 h 0,178 mm 0,6 UV-I 87 W/m 7,3 C 17,9 C 14,8 km/h (3 Bft)
08.07.2015 20:00 18,2 C 50 % 1011,3 hPa 0,0 l/m 2,8 km/h (1 Bft) W-SW 0,15 h 0,102 mm 0,0 UV-I 30 W/m 7,6 C 18,1 C 6,8 km/h (2 Bft)
08.07.2015 21:00 17,6 C 52 % 1011,8 hPa 0,0 l/m 3,6 km/h (1 Bft) W-SW 0,00 h 0,051 mm 0,0 UV-I 5 W/m 7,7 C 17,5 C 9,6 km/h (2 Bft)
08.07.2015 22:00 16,9 C 55 % 1012,3 hPa 0,0 l/m 0,5 km/h (0 Bft) N 0,00 h 0,025 mm 0,0 UV-I 0 W/m 7,9 C 16,9 C 2,0 km/h (1 Bft)
08.07.2015 23:00 16,4 C 58 % 1012,6 hPa 0,0 l/m 2,2 km/h (1 Bft) SW 0,00 h 0,051 mm 0,0 UV-I 0 W/m 8,0 C 16,3 C 6,6 km/h (2 Bft)
09.07.2015 00:00 16,3 C 58 % 1012,8 hPa 0,0 l/m 4,8 km/h (1 Bft) W-SW 0,00 h 0,051 mm 0,0 UV-I 0 W/m 8,1 C 16,0 C 11,1 km/h (2 Bft)
09.07.2015 01:00 15,7 C 62 % 1012,8 hPa 0,0 l/m 2,9 km/h (1 Bft) W-SW 0,00 h 0,051 mm 0,0 UV-I 0 W/m 8,5 C 15,7 C 7,7 km/h (2 Bft)
09.07.2015 02:00 15,2 C 66 % 1012,8 hPa 0,0 l/m 4,6 km/h (1 Bft) W 0,00 h 0,051 mm 0,0 UV-I 0 W/m 8,8 C 15,0 C 10,3 km/h (2 Bft)
09.07.2015 03:00 14,4 C 76 % 1012,8 hPa 0,2 l/m 9,0 km/h (2 Bft) W 0,00 h 0,051 mm 0,0 UV-I 0 W/m 10,2 C 12,9 C 16,7 km/h (3 Bft)
09.07.2015 04:00 13,2 C 84 % 1012,9 hPa 0,0 l/m 6,0 km/h (2 Bft) W-SW 0,00 h 0,000 mm 0,0 UV-I 0 W/m 10,6 C 12,6 C 13,0 km/h (3 Bft)
09.07.2015 05:00 13,1 C 87 % 1013,0 hPa 0,0 l/m 6,3 km/h (2 Bft) W-SW 0,00 h 0,025 mm 0,0 UV-I 20 W/m 10,9 C 12,5 C 13,8 km/h (3 Bft)
09.07.2015 06:00 13,0 C 89 % 1013,4 hPa 0,0 l/m 6,9 km/h (2 Bft) W-SW 0,08 h 0,025 mm 0,0 UV-I 30 W/m 11,2 C 11,9 C 15,2 km/h (3 Bft)
09.07.2015 07:00 13,6 C 86 % 1013,6 hPa 0,0 l/m 7,9 km/h (2 Bft) W-SW 1,00 h 0,025 mm 0,6 UV-I 121 W/m 11,2 C 12,4 C 15,8 km/h (3 Bft)
09.07.2015 08:00 14,6 C 80 % 1013,9 hPa 0,0 l/m 6,3 km/h (2 Bft) W-SW 0,97 h 0,076 mm 1,2 UV-I 217 W/m 11,2 C 14,0 C 14,2 km/h (3 Bft)
09.07.2015 09:00 14,3 C 80 % 1014,1 hPa 0,0 l/m 9,4 km/h (2 Bft) W 0,93 h 0,127 mm 0,6 UV-I 87 W/m 10,8 C 12,5 C 17,3 km/h (3 Bft)
09.07.2015 10:00 13,7 C 88 % 1014,6 hPa 0,0 l/m 6,8 km/h (2 Bft) W 0,98 h 0,076 mm 1,3 UV-I 172 W/m 11,8 C 12,7 C 13,8 km/h (3 Bft)
09.07.2015 11:00 15,2 C 81 % 1014,9 hPa 0,0 l/m 7,7 km/h (2 Bft) NW 1,00 h 0,102 mm 2,3 UV-I 284 W/m 12,0 C 14,1 C 13,1 km/h (3 Bft)
09.07.2015 12:00 16,7 C 65 % 1015,3 hPa 0,0 l/m 13,1 km/h (3 Bft) W-NW 1,00 h 0,178 mm 3,8 UV-I 427 W/m 10,2 C 14,0 C 20,8 km/h (4 Bft)
09.07.2015 13:00 18,0 C 52 % 1015,6 hPa 0,0 l/m 14,4 km/h (3 Bft) W-NW 1,00 h 0,305 mm 4,4 UV-I 565 W/m 8,0 C 15,1 C 23,1 km/h (4 Bft)
09.07.2015 14:00 18,4 C 48 % 1016,0 hPa 0,0 l/m 13,4 km/h (3 Bft) NW 1,00 h 0,406 mm 3,5 UV-I 512 W/m 7,3 C 15,8 C 22,4 km/h (4 Bft)
09.07.2015 15:00 18,1 C 51 % 1016,7 hPa 0,0 l/m 12,5 km/h (2 Bft) W-NW 1,00 h 0,356 mm 3,2 UV-I 422 W/m 7,7 C 15,7 C 20,7 km/h (4 Bft)
09.07.2015 16:00 18,6 C 49 % 1017,0 hPa 0,0 l/m 13,2 km/h (3 Bft) W-NW 1,00 h 0,330 mm 3,1 UV-I 495 W/m 7,5 C 16,1 C 21,1 km/h (4 Bft)
09.07.2015 17:00 17,3 C 49 % 1017,4 hPa 0,0 l/m 11,8 km/h (2 Bft) NW 1,00 h 0,381 mm 1,3 UV-I 230 W/m 6,6 C 15,2 C 19,9 km/h (4 Bft)
09.07.2015 18:00 16,8 C 52 % 1017,9 hPa 0,0 l/m 11,2 km/h (2 Bft) W-NW 1,00 h 0,203 mm 0,9 UV-I 99 W/m 6,8 C 14,7 C 18,7 km/h (3 Bft)
09.07.2015 19:00 16,3 C 50 % 1018,6 hPa 0,0 l/m 9,6 km/h (2 Bft) W-NW 0,33 h 0,127 mm 0,6 UV-I 46 W/m 5,9 C 14,7 C 17,5 km/h (3 Bft)
09.07.2015 20:00 15,2 C 55 % 1019,1 hPa 0,0 l/m 6,0 km/h (2 Bft) W-NW 0,00 h 0,102 mm 0,0 UV-I 22 W/m 6,3 C 14,4 C 11,4 km/h (2 Bft)
09.07.2015 21:00 14,4 C 59 % 1019,9 hPa 0,0 l/m 2,6 km/h (1 Bft) W 0,00 h 0,051 mm 0,0 UV-I 6 W/m 6,4 C 14,3 C 7,2 km/h (2 Bft)
09.07.2015 22:00 12,9 C 65 % 1020,7 hPa 0,0 l/m 0,1 km/h (0 Bft) N 0,00 h 0,025 mm 0,0 UV-I 0 W/m 6,6 C 12,9 C 0,5 km/h (0 Bft)
09.07.2015 23:00 11,7 C 72 % 1021,2 hPa 0,0 l/m 0,0 km/h (0 Bft) N 0,00 h 0,025 mm 0,0 UV-I 0 W/m 6,9 C 11,7 C 0,0 km/h (0 Bft)
10.07.2015 00:00 10,4 C 80 % 1021,7 hPa 0,0 l/m 0,0 km/h (0 Bft) N 0,00 h 0,025 mm 0,0 UV-I 0 W/m 7,0 C 10,4 C 0,0 km/h (0 Bft)
10.07.2015 01:00 9,0 C 86 % 1021,9 hPa 0,0 l/m 0,0 km/h (0 Bft) N 0,00 h 0,025 mm 0,0 UV-I 0 W/m 6,8 C 9,0 C 0,0 km/h (0 Bft)
10.07.2015 02:00 7,8 C 90 % 1022,0 hPa 0,0 l/m 0,0 km/h (0 Bft) N 0,00 h 0,000 mm 0,0 UV-I 0 W/m 6,3 C 7,8 C 0,0 km/h (0 Bft)
10.07.2015 03:00 7,5 C 92 % 1022,2 hPa 0,0 l/m 0,0 km/h (0 Bft) N 0,00 h 0,000 mm 0,0 UV-I 0 W/m 6,2 C 7,5 C 0,0 km/h (0 Bft)
10.07.2015 04:00 7,6 C 92 % 1022,2 hPa 0,0 l/m 0,0 km/h (0 Bft) N 0,00 h 0,000 mm 0,0 UV-I 0 W/m 6,4 C 7,6 C 0,0 km/h (0 Bft)
10.07.2015 05:00 7,3 C 92 % 1022,5 hPa 0,0 l/m 0,0 km/h (0 Bft) N 0,00 h 0,000 mm 0,0 UV-I 11 W/m 6,0 C 7,3 C 0,0 km/h (0 Bft)
10.07.2015 06:00 7,3 C 92 % 1022,9 hPa 0,0 l/m 0,0 km/h (0 Bft) N 0,00 h 0,000 mm 0,0 UV-I 24 W/m 6,1 C 7,3 C 0,0 km/h (0 Bft)
10.07.2015 07:00 9,7 C 81 % 1023,0 hPa 0,0 l/m 1,1 km/h (1 Bft) N 0,58 h 0,000 mm 1,0 UV-I 188 W/m 6,6 C 9,7 C 2,9 km/h (1 Bft)
10.07.2015 08:00 12,8 C 66 % 1022,9 hPa 0,0 l/m 3,4 km/h (1 Bft) N 1,00 h 0,102 mm 1,8 UV-I 471 W/m 6,4 C 12,6 C 7,5 km/h (2 Bft)
10.07.2015 09:00 14,5 C 53 % 1022,7 hPa 0,0 l/m 4,7 km/h (1 Bft) NW 1,00 h 0,254 mm 3,1 UV-I 610 W/m 5,0 C 14,2 C 10,5 km/h (2 Bft)
10.07.2015 10:00 16,2 C 47 % 1022,4 hPa 0,0 l/m 4,0 km/h (1 Bft) W-NW 1,00 h 0,330 mm 4,5 UV-I 739 W/m 4,7 C 15,8 C 8,9 km/h (2 Bft)
10.07.2015 11:00 17,2 C 44 % 1022,4 hPa 0,0 l/m 5,1 km/h (1 Bft) W 1,00 h 0,432 mm 6,3 UV-I 832 W/m 4,8 C 16,8 C 10,9 km/h (2 Bft)
10.07.2015 12:00 18,5 C 39 % 1022,1 hPa 0,0 l/m 7,2 km/h (2 Bft) W 1,00 h 0,483 mm 7,3 UV-I 877 W/m 4,3 C 17,5 C 13,4 km/h (3 Bft)
10.07.2015 13:00 20,2 C 34 % 1021,7 hPa 0,0 l/m 6,4 km/h (2 Bft) NW 1,00 h 0,559 mm 7,5 UV-I 881 W/m 3,6 C 19,6 C 12,8 km/h (3 Bft)
10.07.2015 14:00 20,7 C 31 % 1021,3 hPa 0,0 l/m 9,1 km/h (2 Bft) W-NW 1,00 h 0,559 mm 6,8 UV-I 846 W/m 3,0 C 19,5 C 16,1 km/h (3 Bft)
10.07.2015 15:00 21,3 C 31 % 1021,1 hPa 0,0 l/m 10,2 km/h (2 Bft) NW 1,00 h 0,584 mm 5,6 UV-I 772 W/m 3,4 C 20,0 C 17,3 km/h (3 Bft)
10.07.2015 16:00 21,2 C 33 % 1020,7 hPa 0,0 l/m 7,4 km/h (2 Bft) N 1,00 h 0,559 mm 4,0 UV-I 648 W/m 4,4 C 20,4 C 13,7 km/h (3 Bft)
10.07.2015 17:00 20,7 C 35 % 1020,3 hPa 0,0 l/m 7,5 km/h (2 Bft) NW 1,00 h 0,457 mm 2,6 UV-I 410 W/m 4,5 C 19,8 C 13,1 km/h (3 Bft)
10.07.2015 18:00 19,4 C 38 % 1020,0 hPa 0,0 l/m 3,7 km/h (1 Bft) NW 0,27 h 0,305 mm 0,0 UV-I 45 W/m 4,8 C 19,2 C 8,6 km/h (2 Bft)
10.07.2015 19:00 18,8 C 40 % 1019,8 hPa 0,0 l/m 3,5 km/h (1 Bft) NW 0,00 h 0,076 mm 0,0 UV-I 28 W/m 5,0 C 18,6 C 7,6 km/h (2 Bft)
10.07.2015 20:00 18,0 C 44 % 1019,9 hPa 0,0 l/m 0,7 km/h (0 Bft) NW 0,00 h 0,051 mm 0,0 UV-I 16 W/m 5,5 C 18,0 C 2,6 km/h (1 Bft)
10.07.2015 21:00 16,0 C 53 % 1020,2 hPa 0,0 l/m 0,8 km/h (0 Bft) N 0,00 h 0,025 mm 0,0 UV-I 6 W/m 6,4 C 16,0 C 3,0 km/h (1 Bft)
10.07.2015 22:00 13,9 C 63 % 1020,6 hPa 0,0 l/m 0,0 km/h (0 Bft) N 0,00 h 0,000 mm 0,0 UV-I 0 W/m 7,0 C 13,9 C 0,0 km/h (0 Bft)
10.07.2015 23:00 11,7 C 75 % 1020,6 hPa 0,0 l/m 0,0 km/h (0 Bft) N 0,00 h 0,000 mm 0,0 UV-I 0 W/m 7,5 C 11,7 C 0,0 km/h (0 Bft)
11.07.2015 00:00 10,3 C 82 % 1020,5 hPa 0,0 l/m 0,0 km/h (0 Bft) N 0,00 h 0,025 mm 0,0 UV-I 0 W/m 7,3 C 10,3 C 0,0 km/h (0 Bft)
11.07.2015 01:00 9,4 C 85 % 1020,3 hPa 0,0 l/m 0,2 km/h (0 Bft) N 0,00 h 0,025 mm 0,0 UV-I 0 W/m 7,0 C 9,4 C 0,4 km/h (0 Bft)
11.07.2015 02:00 8,5 C 86 % 1020,0 hPa 0,0 l/m 0,3 km/h (0 Bft) N 0,00 h 0,000 mm 0,0 UV-I 0 W/m 6,3 C 8,5 C 0,7 km/h (0 Bft)
11.07.2015 03:00 8,0 C 87 % 1019,7 hPa 0,0 l/m 0,6 km/h (0 Bft) N 0,00 h 0,000 mm 0,0 UV-I 0 W/m 6,1 C 8,0 C 1,3 km/h (1 Bft)
11.07.2015 04:00 7,6 C 88 % 1019,2 hPa 0,0 l/m 0,5 km/h (0 Bft) N 0,00 h 0,000 mm 0,0 UV-I 0 W/m 5,8 C 7,6 C 1,2 km/h (1 Bft)
11.07.2015 05:00 7,3 C 89 % 1018,9 hPa 0,0 l/m 0,0 km/h (0 Bft) N 0,00 h 0,000 mm 0,0 UV-I 9 W/m 5,6 C 7,3 C 0,2 km/h (0 Bft)
11.07.2015 06:00 7,4 C 92 % 1018,7 hPa 0,0 l/m 0,0 km/h (0 Bft) N 0,00 h 0,000 mm 0,0 UV-I 17 W/m 6,1 C 7,4 C 0,0 km/h (0 Bft)
11.07.2015 07:00 10,6 C 87 % 1018,7 hPa 0,0 l/m 0,0 km/h (0 Bft) N 0,57 h 0,000 mm 1,0 UV-I 184 W/m 8,5 C 10,6 C 0,0 km/h (0 Bft)
11.07.2015 08:00 16,1 C 62 % 1018,2 hPa 0,0 l/m 0,2 km/h (0 Bft) N 1,00 h 0,102 mm 1,8 UV-I 456 W/m 8,7 C 16,1 C 1,0 km/h (0 Bft)
11.07.2015 09:00 19,1 C 51 % 1018,3 hPa 0,0 l/m 0,6 km/h (0 Bft) N 1,00 h 0,254 mm 3,1 UV-I 610 W/m 8,5 C 19,1 C 2,0 km/h (1 Bft)
11.07.2015 10:00 20,9 C 44 % 1017,8 hPa 0,0 l/m 1,5 km/h (1 Bft) N 1,00 h 0,356 mm 4,3 UV-I 762 W/m 8,3 C 20,9 C 3,8 km/h (1 Bft)
11.07.2015 11:00 20,5 C 43 % 1017,3 hPa 0,0 l/m 2,9 km/h (1 Bft) S 1,00 h 0,457 mm 3,4 UV-I 418 W/m 7,6 C 20,5 C 6,3 km/h (2 Bft)
11.07.2015 12:00 22,2 C 41 % 1017,0 hPa 0,0 l/m 2,1 km/h (1 Bft) N 1,00 h 0,279 mm 4,9 UV-I 652 W/m 8,4 C 22,2 C 5,1 km/h (1 Bft)
11.07.2015 13:00 22,6 C 40 % 1016,5 hPa 0,0 l/m 1,5 km/h (1 Bft) N 1,00 h 0,406 mm 4,2 UV-I 558 W/m 8,4 C 22,6 C 3,6 km/h (1 Bft)
11.07.2015 14:00 23,8 C 38 % 1016,2 hPa 0,0 l/m 1,4 km/h (1 Bft) N 1,00 h 0,356 mm 4,7 UV-I 674 W/m 8,4 C 23,8 C 4,2 km/h (1 Bft)
11.07.2015 15:00 25,6 C 34 % 1015,7 hPa 0,0 l/m 1,1 km/h (1 Bft) N 1,00 h 0,432 mm 4,7 UV-I 768 W/m 8,6 C 25,6 C 3,5 km/h (1 Bft)
11.07.2015 16:00 26,1 C 34 % 1015,3 hPa 0,0 l/m 1,7 km/h (1 Bft) N 1,00 h 0,508 mm 3,3 UV-I 626 W/m 8,9 C 26,1 C 4,2 km/h (1 Bft)
11.07.2015 17:00 26,6 C 32 % 1015,1 hPa 0,0 l/m 4,8 km/h (1 Bft) W-NW 1,00 h 0,432 mm 1,9 UV-I 412 W/m 8,6 C 26,5 C 9,6 km/h (2 Bft)
11.07.2015 18:00 25,5 C 34 % 1014,9 hPa 0,0 l/m 4,6 km/h (1 Bft) W 1,00 h 0,330 mm 0,9 UV-I 71 W/m 8,6 C 25,4 C 9,5 km/h (2 Bft)
11.07.2015 19:00 24,8 C 37 % 1014,6 hPa 0,0 l/m 2,8 km/h (1 Bft) W-NW 0,27 h 0,102 mm 0,6 UV-I 44 W/m 8,9 C 24,7 C 5,7 km/h (2 Bft)
11.07.2015 20:00 23,5 C 40 % 1015,0 hPa 0,0 l/m 1,2 km/h (1 Bft) N 0,00 h 0,076 mm 0,0 UV-I 20 W/m 9,1 C 23,5 C 3,2 km/h (1 Bft)
11.07.2015 21:00 20,6 C 50 % 1015,6 hPa 0,0 l/m 0,0 km/h (0 Bft) N 0,00 h 0,025 mm 0,0 UV-I 5 W/m 9,8 C 20,6 C 0,1 km/h (0 Bft)
11.07.2015 22:00 17,8 C 63 % 1015,8 hPa 0,0 l/m 0,0 km/h (0 Bft) N 0,00 h 0,000 mm 0,0 UV-I 0 W/m 10,7 C 17,8 C 0,0 km/h (0 Bft)
11.07.2015 23:00 15,8 C 74 % 1016,0 hPa 0,0 l/m 0,0 km/h (0 Bft) N 0,00 h 0,025 mm 0,0 UV-I 0 W/m 11,1 C 15,8 C 0,0 km/h (0 Bft)
12.07.2015 00:00 14,1 C 80 % 1016,0 hPa 0,0 l/m 0,0 km/h (0 Bft) N 0,00 h 0,025 mm 0,0 UV-I 0 W/m 10,7 C 14,1 C 0,0 km/h (0 Bft)
12.07.2015 01:00 13,1 C 83 % 1015,9 hPa 0,0 l/m 0,0 km/h (0 Bft) N 0,00 h 0,025 mm 0,0 UV-I 0 W/m 10,2 C 13,1 C 0,0 km/h (0 Bft)
12.07.2015 02:00 12,3 C 85 % 1015,7 hPa 0,0 l/m 0,0 km/h (0 Bft) N 0,00 h 0,025 mm 0,0 UV-I 0 W/m 9,9 C 12,3 C 0,0 km/h (0 Bft)
12.07.2015 03:00 11,3 C 88 % 1015,7 hPa 0,0 l/m 0,0 km/h (0 Bft) N 0,00 h 0,000 mm 0,0 UV-I 0 W/m 9,5 C 11,3 C 0,0 km/h (0 Bft)
12.07.2015 04:00 11,0 C 89 % 1015,8 hPa 0,0 l/m 0,0 km/h (0 Bft) N 0,00 h 0,000 mm 0,0 UV-I 0 W/m 9,3 C 11,0 C 0,0 km/h (0 Bft)
12.07.2015 05:00 10,9 C 89 % 1015,8 hPa 0,0 l/m 0,0 km/h (0 Bft) N 0,00 h 0,000 mm 0,0 UV-I 12 W/m 9,1 C 10,9 C 0,0 km/h (0 Bft)
12.07.2015 06:00 11,4 C 88 % 1015,8 hPa 0,0 l/m 0,0 km/h (0 Bft) N 0,00 h 0,000 mm 0,0 UV-I 29 W/m 9,4 C 11,4 C 0,0 km/h (0 Bft)
12.07.2015 07:00 14,2 C 81 % 1015,9 hPa 0,0 l/m 0,0 km/h (0 Bft) N 0,55 h 0,025 mm 0,9 UV-I 178 W/m 11,0 C 14,2 C 0,1 km/h (0 Bft)
12.07.2015 08:00 18,4 C 67 % 1015,9 hPa 0,0 l/m 0,0 km/h (0 Bft) N 1,00 h 0,102 mm 1,6 UV-I 420 W/m 12,2 C 18,4 C 0,1 km/h (0 Bft)
12.07.2015 09:00 22,1 C 58 % 1015,9 hPa 0,0 l/m 0,4 km/h (0 Bft) N 1,00 h 0,229 mm 2,5 UV-I 552 W/m 13,3 C 22,1 C 1,0 km/h (0 Bft)
12.07.2015 10:00 25,1 C 43 % 1015,6 hPa 0,0 l/m 4,9 km/h (1 Bft) W-SW 1,00 h 0,330 mm 3,4 UV-I 645 W/m 11,5 C 24,9 C 9,5 km/h (2 Bft)
12.07.2015 11:00 25,9 C 38 % 1015,7 hPa 0,0 l/m 10,7 km/h (2 Bft) W-SW 1,00 h 0,432 mm 4,6 UV-I 739 W/m 10,5 C 25,0 C 18,7 km/h (3 Bft)
12.07.2015 12:00 26,4 C 36 % 1015,4 hPa 0,0 l/m 10,6 km/h (2 Bft) W-SW 1,00 h 0,584 mm 5,3 UV-I 786 W/m 10,3 C 25,7 C 18,9 km/h (3 Bft)
12.07.2015 13:00 26,7 C 35 % 1015,0 hPa 0,0 l/m 8,5 km/h (2 Bft) W-SW 1,00 h 0,610 mm 4,9 UV-I 716 W/m 10,1 C 26,2 C 17,1 km/h (3 Bft)
12.07.2015 14:00 27,1 C 36 % 1014,6 hPa 0,0 l/m 10,2 km/h (2 Bft) W 1,00 h 0,533 mm 4,6 UV-I 644 W/m 10,5 C 26,4 C 19,0 km/h (3 Bft)
12.07.2015 15:00 26,9 C 37 % 1014,2 hPa 0,0 l/m 7,1 km/h (2 Bft) W-SW 1,00 h 0,508 mm 4,2 UV-I 653 W/m 10,8 C 26,5 C 14,5 km/h (3 Bft)
12.07.2015 16:00 26,5 C 38 % 1013,8 hPa 0,0 l/m 7,9 km/h (2 Bft) W 1,00 h 0,508 mm 2,5 UV-I 361 W/m 10,9 C 26,1 C 15,6 km/h (3 Bft)
12.07.2015 17:00 25,5 C 39 % 1013,6 hPa 0,0 l/m 7,3 km/h (2 Bft) W 1,00 h 0,330 mm 1,4 UV-I 243 W/m 10,5 C 25,0 C 14,4 km/h (3 Bft)
12.07.2015 18:00 25,0 C 39 % 1013,4 hPa 0,0 l/m 4,6 km/h (1 Bft) W 1,00 h 0,229 mm 0,9 UV-I 153 W/m 10,2 C 24,9 C 10,3 km/h (2 Bft)
12.07.2015 19:00 24,2 C 40 % 1013,4 hPa 0,0 l/m 9,3 km/h (2 Bft) NW 0,77 h 0,152 mm 0,5 UV-I 68 W/m 9,5 C 23,3 C 16,3 km/h (3 Bft)
12.07.2015 20:00 22,1 C 52 % 1014,1 hPa 0,0 l/m 7,3 km/h (2 Bft) N 0,00 h 0,152 mm 0,0 UV-I 15 W/m 11,6 C 21,4 C 13,0 km/h (3 Bft)
12.07.2015 21:00 19,9 C 65 % 1014,9 hPa 0,0 l/m 12,4 km/h (2 Bft) N 0,00 h 0,076 mm 0,0 UV-I 0 W/m 13,0 C 17,9 C 19,9 km/h (4 Bft)
12.07.2015 22:00 17,8 C 72 % 1016,1 hPa 0,0 l/m 8,5 km/h (2 Bft) N 0,00 h 0,076 mm 0,0 UV-I 0 W/m 12,6 C 16,6 C 14,0 km/h (3 Bft)
12.07.2015 23:00 16,5 C 77 % 1016,6 hPa 0,0 l/m 6,6 km/h (2 Bft) NW 0,00 h 0,051 mm 0,0 UV-I 0 W/m 12,5 C 15,8 C 11,3 km/h (2 Bft)
Min-Datum _ 10.07.15 10.07.15 07.07.15 - 06.07.15 - - - - - 10.07.15 10.07.15 06.07.15
_ Min-Zeit 05:50 14:41 22:43 - 00:00 - - - - - 14:41 07:24 00:00
Minimum _ 6,9 C 27 % 1002,2 hPa - 0,0 km/h (0 Bft) - - - - - 1,2 C 6,9 C 0,0 km/h (0 Bft)
Max-Datum _ 07.07.15 06.07.15 10.07.15 06.07.15 08.07.15 - 11.07.15 07.07.15 10.07.15 09.07.15 07.07.15 07.07.15 08.07.15
_ Max-Zeit 15:08 06:34 07:36 01:40 15:24 - 09:10 14:00 12:49 14:29 12:35 15:02 16:28
Maximum _ 32,6 C 95 % 1023,2 hPa 2,2 l/m 30,6 km/h
W (5 Bft)
- 0,08 h 0,635 mm 7,6 UV-I 1162 W/m 20,5 C 32,5 C 46,7 km/h
W (6 Bft)
Durchschnitt _ 18,8 C 64 % 1015,3 hPa #5,2 l/m 4,3 km/h (1 Bft) N #84:43 h #30,602 mm 3,1 UV-I 353 W/m 10,9 C 18,3 C 8,3 km/h (2 Bft)